createdAt,value
2018-09-13T00:01:06.474Z,21.30
2018-09-13T00:03:34.693Z,21.30
2018-09-13T00:06:03.030Z,21.30
2018-09-13T00:08:31.134Z,21.30
2018-09-13T00:10:59.250Z,21.30
2018-09-13T00:13:27.361Z,21.20
2018-09-13T00:15:55.457Z,21.30
2018-09-13T00:18:23.596Z,21.20
2018-09-13T00:20:52.115Z,21.20
2018-09-13T00:23:20.210Z,21.20
2018-09-13T00:25:48.274Z,21.20
2018-09-13T00:28:16.380Z,21.20
2018-09-13T00:30:44.570Z,21.20
2018-09-13T00:33:12.778Z,21.20
2018-09-13T00:35:40.839Z,21.20
2018-09-13T00:38:08.924Z,21.20
2018-09-13T00:40:37.351Z,21.20
2018-09-13T00:43:05.417Z,21.20
2018-09-13T00:45:33.579Z,21.20
2018-09-13T00:48:01.871Z,21.20
2018-09-13T00:50:29.944Z,21.20
2018-09-13T00:52:58.062Z,21.10
2018-09-13T00:55:26.550Z,21.20
2018-09-13T00:57:54.674Z,21.10
2018-09-13T01:00:22.766Z,21.10
2018-09-13T01:02:50.876Z,21.20
2018-09-13T01:05:18.958Z,21.10
2018-09-13T01:07:47.030Z,21.10
2018-09-13T01:10:15.114Z,21.10
2018-09-13T01:12:43.262Z,21.10
2018-09-13T01:15:11.320Z,21.10
2018-09-13T01:17:39.424Z,21.10
2018-09-13T01:20:07.478Z,21.10
2018-09-13T01:22:35.591Z,21.00
2018-09-13T01:25:03.666Z,21.00
2018-09-13T01:27:31.730Z,21.00
2018-09-13T01:29:59.814Z,21.00
2018-09-13T01:32:27.900Z,21.00
2018-09-13T01:34:56.026Z,21.00
2018-09-13T01:37:24.106Z,21.00
2018-09-13T01:39:52.584Z,21.00
2018-09-13T01:42:20.654Z,20.90
2018-09-13T01:44:48.935Z,20.90
2018-09-13T01:47:17.082Z,20.90
2018-09-13T01:49:45.206Z,20.90
2018-09-13T01:52:13.333Z,20.90
2018-09-13T01:54:41.446Z,20.90
2018-09-13T01:57:09.529Z,20.90
2018-09-13T01:59:37.610Z,20.90
2018-09-13T02:02:06.156Z,20.90
2018-09-13T02:04:34.231Z,20.90
2018-09-13T02:07:02.337Z,20.80
2018-09-13T02:09:30.419Z,20.80
2018-09-13T02:11:58.506Z,20.80
2018-09-13T02:14:26.607Z,20.80
2018-09-13T02:16:54.770Z,20.80
2018-09-13T02:19:22.912Z,20.80
2018-09-13T02:21:50.991Z,20.80
2018-09-13T02:24:19.395Z,20.80
2018-09-13T02:26:47.556Z,20.80
2018-09-13T02:29:15.674Z,20.80
2018-09-13T02:31:43.807Z,20.80
2018-09-13T02:34:12.046Z,20.80
2018-09-13T02:36:40.167Z,20.70
2018-09-13T02:39:09.081Z,20.70
2018-09-13T02:41:37.293Z,20.70
2018-09-13T02:44:06.235Z,20.70
2018-09-13T02:46:34.313Z,20.70
2018-09-13T02:49:02.429Z,20.70
2018-09-13T02:51:30.450Z,20.70
2018-09-13T02:53:58.682Z,20.70
2018-09-13T02:56:26.808Z,20.70
2018-09-13T02:58:54.886Z,20.70
2018-09-13T03:01:23.025Z,20.70
2018-09-13T03:03:51.162Z,20.70
2018-09-13T03:06:19.371Z,20.70
2018-09-13T03:08:47.956Z,20.70
2018-09-13T03:11:16.110Z,20.70
2018-09-13T03:13:44.207Z,20.70
2018-09-13T03:16:12.285Z,20.70
2018-09-13T03:18:40.335Z,20.70
2018-09-13T03:21:08.503Z,20.70
2018-09-13T03:23:36.658Z,20.60
2018-09-13T03:26:04.746Z,20.70
2018-09-13T03:28:32.856Z,20.60
2018-09-13T03:31:00.984Z,20.60
2018-09-13T03:33:29.064Z,20.60
2018-09-13T03:35:57.175Z,20.60
2018-09-13T03:38:25.246Z,20.60
2018-09-13T03:40:53.350Z,20.60
2018-09-13T03:43:21.445Z,20.60
2018-09-13T03:45:49.666Z,20.50
2018-09-13T03:48:17.819Z,20.50
2018-09-13T03:50:45.940Z,20.50
2018-09-13T03:53:14.014Z,20.50
2018-09-13T03:55:42.168Z,20.50
2018-09-13T03:58:10.263Z,20.40
2018-09-13T04:00:38.351Z,20.50
2018-09-13T04:03:06.427Z,20.50
2018-09-13T04:05:34.599Z,20.40
2018-09-13T04:08:02.684Z,20.40
2018-09-13T04:10:30.833Z,20.40
2018-09-13T04:12:58.960Z,20.40
2018-09-13T04:15:27.027Z,20.40
2018-09-13T04:17:55.122Z,20.40
2018-09-13T04:20:23.226Z,20.40
2018-09-13T04:22:51.310Z,20.40
2018-09-13T04:25:19.390Z,20.30
2018-09-13T04:27:47.550Z,20.30
2018-09-13T04:30:15.610Z,20.30
2018-09-13T04:32:43.771Z,20.30
2018-09-13T04:35:11.926Z,20.30
2018-09-13T04:37:40.086Z,20.30
2018-09-13T04:40:08.274Z,20.30
2018-09-13T04:42:36.395Z,20.20
2018-09-13T04:45:04.880Z,20.20
2018-09-13T04:47:33.013Z,20.20
2018-09-13T04:50:01.102Z,20.20
2018-09-13T04:52:29.211Z,20.20
2018-09-13T04:54:57.356Z,20.20
2018-09-13T04:57:25.443Z,20.20
2018-09-13T04:59:53.559Z,20.20
2018-09-13T05:02:21.742Z,20.20
2018-09-13T05:04:50.770Z,20.20
2018-09-13T05:07:18.923Z,20.10
2018-09-13T05:09:47.040Z,20.10
2018-09-13T05:12:15.151Z,20.10
2018-09-13T05:14:43.273Z,20.10
2018-09-13T05:17:11.439Z,20.10
2018-09-13T05:19:39.555Z,20.10
2018-09-13T05:22:07.719Z,20.10
2018-09-13T05:24:35.816Z,20.10
2018-09-13T05:27:03.887Z,20.10
2018-09-13T05:29:31.962Z,20.10
2018-09-13T05:32:00.070Z,20.10
2018-09-13T05:34:28.150Z,20.10
2018-09-13T05:36:56.221Z,20.10
2018-09-13T05:39:24.384Z,20.00
2018-09-13T05:41:52.515Z,19.90
2018-09-13T05:44:20.740Z,19.90
2018-09-13T05:46:48.902Z,19.90
2018-09-13T05:49:17.014Z,19.90
2018-09-13T05:51:45.192Z,19.90
2018-09-13T05:54:13.274Z,19.90
2018-09-13T05:56:41.406Z,19.90
2018-09-13T05:59:09.515Z,20.00
2018-09-13T06:01:37.631Z,19.90
2018-09-13T06:04:06.161Z,19.90
2018-09-13T06:06:34.308Z,19.90
2018-09-13T06:09:02.423Z,19.80
2018-09-13T06:11:30.567Z,19.80
2018-09-13T06:13:58.674Z,19.80
2018-09-13T06:16:26.819Z,19.80
2018-09-13T06:18:54.916Z,19.80
2018-09-13T06:21:23.007Z,19.80
2018-09-13T06:23:51.119Z,19.80
2018-09-13T06:26:19.228Z,19.90
2018-09-13T06:28:47.350Z,19.90
2018-09-13T06:31:15.543Z,19.90
2018-09-13T06:33:43.646Z,19.90
2018-09-13T06:36:11.781Z,19.90
2018-09-13T06:38:39.962Z,19.90
2018-09-13T06:41:08.170Z,19.90
2018-09-13T06:43:36.843Z,19.90
2018-09-13T06:46:04.983Z,19.90
2018-09-13T06:48:33.107Z,19.90
2018-09-13T06:51:01.184Z,19.90
2018-09-13T06:53:29.266Z,19.90
2018-09-13T06:55:57.368Z,19.90
2018-09-13T06:58:25.456Z,19.90
2018-09-13T07:00:53.552Z,20.00
2018-09-13T07:03:21.691Z,20.00
2018-09-13T07:05:49.759Z,20.00
2018-09-13T07:08:17.911Z,20.00
2018-09-13T07:10:46.219Z,20.00
2018-09-13T07:13:14.384Z,20.10
2018-09-13T07:15:42.536Z,20.10
2018-09-13T07:18:10.640Z,20.10
2018-09-13T07:20:38.755Z,20.10
2018-09-13T07:23:07.098Z,20.20
2018-09-13T07:25:35.231Z,20.20
2018-09-13T07:28:03.446Z,20.20
2018-09-13T07:30:31.531Z,20.20
2018-09-13T07:32:59.656Z,20.20
2018-09-13T07:35:27.863Z,20.30
2018-09-13T07:37:56.035Z,20.30
2018-09-13T07:40:24.179Z,20.40
2018-09-13T07:42:52.300Z,20.40
2018-09-13T07:45:20.485Z,20.40
2018-09-13T07:47:48.693Z,20.40
2018-09-13T07:50:16.783Z,20.40
2018-09-13T07:52:44.935Z,20.50
2018-09-13T07:55:13.088Z,20.50
2018-09-13T07:57:41.207Z,20.60
2018-09-13T08:00:09.331Z,20.60
2018-09-13T08:02:37.448Z,20.60
2018-09-13T08:05:05.720Z,20.70
2018-09-13T08:07:33.831Z,20.70
2018-09-13T08:10:01.943Z,20.70
2018-09-13T08:12:30.123Z,20.70
2018-09-13T08:14:58.214Z,20.80
2018-09-13T08:17:26.368Z,20.80
2018-09-13T08:19:54.454Z,20.90
2018-09-13T08:22:22.550Z,20.90
2018-09-13T08:24:50.707Z,20.90
2018-09-13T08:27:18.917Z,21.00
2018-09-13T08:29:46.977Z,21.00
2018-09-13T08:32:15.075Z,21.10
2018-09-13T08:34:43.251Z,21.10
2018-09-13T08:37:11.243Z,21.20
2018-09-13T08:39:39.403Z,21.20
2018-09-13T08:42:07.493Z,21.30
2018-09-13T08:44:35.643Z,21.30
2018-09-13T08:47:03.678Z,21.30
2018-09-13T08:49:31.948Z,21.40
2018-09-13T08:52:00.101Z,21.40
2018-09-13T08:54:28.183Z,21.40
2018-09-13T08:56:56.323Z,21.50
2018-09-13T08:59:24.466Z,21.50
2018-09-13T09:01:52.571Z,21.50
2018-09-13T09:04:21.679Z,21.50
2018-09-13T09:06:49.811Z,21.60
2018-09-13T09:09:17.958Z,21.60
2018-09-13T09:11:46.164Z,21.70
2018-09-13T09:14:14.263Z,21.70
2018-09-13T09:16:42.442Z,21.70
2018-09-13T09:19:10.589Z,21.80
2018-09-13T09:21:38.682Z,21.80
2018-09-13T09:24:06.841Z,21.90
2018-09-13T09:26:34.923Z,21.90
2018-09-13T09:29:03.213Z,21.90
2018-09-13T09:31:31.268Z,22.00
2018-09-13T09:33:59.368Z,22.00
2018-09-13T09:36:27.484Z,22.10
2018-09-13T09:38:55.574Z,22.10
2018-09-13T09:41:23.780Z,22.10
2018-09-13T09:43:51.914Z,22.20
2018-09-13T09:46:20.011Z,22.20
2018-09-13T09:48:48.431Z,22.30
2018-09-13T09:51:16.344Z,22.30
2018-09-13T09:53:45.362Z,22.40
2018-09-13T09:56:13.656Z,22.40
2018-09-13T09:58:41.643Z,22.40
2018-09-13T10:01:15.091Z,22.40
2018-09-13T10:03:43.285Z,22.40
2018-09-13T10:06:11.395Z,22.50
2018-09-13T10:08:39.589Z,22.50
2018-09-13T10:11:07.670Z,22.50
2018-09-13T10:13:35.768Z,22.60
2018-09-13T10:16:09.251Z,22.60
2018-09-13T10:18:43.813Z,22.60
2018-09-13T10:21:17.245Z,22.70
2018-09-13T10:25:57.298Z,22.70
2018-09-13T10:28:30.934Z,22.80
2018-09-13T10:31:04.593Z,22.80
2018-09-13T10:33:38.055Z,22.80
2018-09-13T10:36:11.612Z,22.90
2018-09-13T10:38:44.991Z,22.90
2018-09-13T10:41:18.588Z,23.00
2018-09-13T10:43:53.169Z,23.00
2018-09-13T10:46:25.835Z,23.10
2018-09-13T10:48:59.395Z,23.10
2018-09-13T10:51:32.969Z,23.10
2018-09-13T10:54:11.385Z,23.10
2018-09-13T10:56:40.174Z,23.20
2018-09-13T10:59:08.314Z,23.30
2018-09-13T11:01:36.393Z,23.30
2018-09-13T11:04:04.502Z,23.30
2018-09-13T11:06:32.651Z,23.40
2018-09-13T11:09:00.812Z,23.40
2018-09-13T11:11:28.992Z,23.50
2018-09-13T11:14:02.522Z,23.40
2018-09-13T11:16:30.898Z,23.50
2018-09-13T11:18:59.403Z,23.50
2018-09-13T11:21:27.522Z,23.60
2018-09-13T11:23:55.643Z,23.60
2018-09-13T11:26:23.756Z,23.70
2018-09-13T11:28:51.947Z,23.70
2018-09-13T11:31:20.116Z,23.70
2018-09-13T11:33:48.283Z,23.80
2018-09-13T11:36:16.406Z,23.80
2018-09-13T11:38:44.566Z,23.80
2018-09-13T11:41:12.714Z,23.90
2018-09-13T11:43:40.802Z,23.90
2018-09-13T11:46:08.874Z,23.90
2018-09-13T11:48:36.974Z,24.00
2018-09-13T11:51:05.202Z,24.00
2018-09-13T11:53:33.347Z,24.10
2018-09-13T11:56:01.472Z,24.10
2018-09-13T11:58:29.571Z,24.10
2018-09-13T12:00:57.675Z,24.10
2018-09-13T12:03:25.795Z,24.20
2018-09-13T12:05:53.975Z,24.20
2018-09-13T12:08:22.351Z,24.20
2018-09-13T12:10:50.502Z,24.20
2018-09-13T12:13:18.583Z,24.30
2018-09-13T12:15:46.743Z,24.30
2018-09-13T12:18:14.914Z,24.40
2018-09-13T12:20:42.977Z,24.40
2018-09-13T12:23:11.040Z,24.40
2018-09-13T12:25:39.116Z,24.40
2018-09-13T12:28:07.270Z,24.40
2018-09-13T12:30:35.335Z,24.50
2018-09-13T12:33:03.445Z,24.50
2018-09-13T12:35:31.619Z,24.50
2018-09-13T12:37:59.765Z,24.50
2018-09-13T12:40:27.886Z,24.50
2018-09-13T12:42:56.043Z,24.50
2018-09-13T12:45:24.154Z,24.50
2018-09-13T12:47:52.278Z,24.60
2018-09-13T12:50:20.399Z,24.60
2018-09-13T12:52:48.630Z,24.60
2018-09-13T12:55:16.738Z,24.70
2018-09-13T12:57:44.806Z,24.60
2018-09-13T13:00:13.026Z,24.70
2018-09-13T13:02:41.127Z,24.70
2018-09-13T13:05:12.423Z,24.70
2018-09-13T13:07:40.607Z,24.70
2018-09-13T13:10:08.764Z,24.70
2018-09-13T13:12:36.937Z,24.70
2018-09-13T13:15:05.213Z,24.80
2018-09-13T13:17:33.327Z,24.80
2018-09-13T13:20:01.399Z,24.80
2018-09-13T13:22:29.497Z,24.90
2018-09-13T13:24:57.695Z,24.90
2018-09-13T13:27:25.879Z,24.90
2018-09-13T13:29:53.994Z,25.00
2018-09-13T13:32:22.214Z,25.00
2018-09-13T13:34:50.416Z,25.10
2018-09-13T13:37:18.535Z,25.10
2018-09-13T13:39:46.676Z,25.10
2018-09-13T13:42:14.818Z,25.10
2018-09-13T13:44:42.931Z,25.20
2018-09-13T13:47:11.068Z,25.20
2018-09-13T13:49:39.207Z,25.20
2018-09-13T13:52:07.487Z,25.20
2018-09-13T13:54:35.674Z,25.20
2018-09-13T13:57:03.837Z,25.20
2018-09-13T13:59:32.128Z,25.20
2018-09-13T14:02:00.286Z,25.10
2018-09-13T14:04:28.490Z,25.20
2018-09-13T14:06:56.788Z,25.20
2018-09-13T14:09:25.013Z,25.20
2018-09-13T14:11:53.207Z,25.20
2018-09-13T14:14:21.353Z,25.20
2018-09-13T14:16:49.452Z,25.20
2018-09-13T14:19:17.562Z,25.20
2018-09-13T14:21:45.678Z,25.20
2018-09-13T14:24:13.806Z,25.30
2018-09-13T14:26:41.966Z,25.20
2018-09-13T14:29:10.180Z,25.20
2018-09-13T14:31:38.324Z,25.20
2018-09-13T14:34:06.633Z,25.20
2018-09-13T14:36:34.823Z,25.20
2018-09-13T14:39:03.203Z,25.20
2018-09-13T14:41:31.467Z,25.20
2018-09-13T14:43:59.571Z,25.20
2018-09-13T14:46:27.708Z,25.20
2018-09-13T14:48:55.869Z,25.20
2018-09-13T14:51:24.320Z,25.20
2018-09-13T14:53:52.606Z,25.20
2018-09-13T14:56:20.862Z,25.20
2018-09-13T14:58:48.977Z,25.20
2018-09-13T15:01:17.088Z,25.20
2018-09-13T15:03:45.218Z,25.20
2018-09-13T15:06:13.530Z,25.20
2018-09-13T15:08:41.635Z,25.10
2018-09-13T15:11:09.850Z,25.10
2018-09-13T15:13:37.993Z,25.10
2018-09-13T15:16:06.541Z,25.10
2018-09-13T15:18:34.716Z,25.10
2018-09-13T15:21:02.958Z,25.10
2018-09-13T15:23:31.139Z,25.10
2018-09-13T15:26:00.840Z,25.10
2018-09-13T15:28:29.579Z,25.10
2018-09-13T15:30:57.735Z,25.10
2018-09-13T15:33:25.888Z,25.10
2018-09-13T15:35:54.152Z,25.10
2018-09-13T15:38:22.371Z,25.10
2018-09-13T15:40:50.815Z,25.10
2018-09-13T15:43:18.984Z,25.10
2018-09-13T15:45:47.215Z,25.10
2018-09-13T15:48:15.597Z,25.00
2018-09-13T15:50:43.854Z,25.00
2018-09-13T15:53:12.239Z,25.00
2018-09-13T15:55:40.398Z,25.00
2018-09-13T15:58:08.543Z,24.90
2018-09-13T16:00:36.663Z,24.90
2018-09-13T16:03:04.963Z,24.90
2018-09-13T16:05:33.430Z,24.90
2018-09-13T16:08:01.674Z,24.90
2018-09-13T16:10:29.828Z,24.80
2018-09-13T16:12:57.994Z,24.80
2018-09-13T16:15:26.124Z,24.80
2018-09-13T16:17:54.365Z,24.70
2018-09-13T16:20:22.563Z,24.70
2018-09-13T16:22:50.720Z,24.70
2018-09-13T16:25:18.854Z,24.70
2018-09-13T16:27:47.079Z,24.70
2018-09-13T16:30:15.278Z,24.60
2018-09-13T16:32:43.530Z,24.60
2018-09-13T16:35:12.080Z,24.50
2018-09-13T16:37:45.587Z,24.50
2018-09-13T16:40:28.049Z,24.40
2018-09-13T16:45:36.535Z,24.30
2018-09-13T16:48:05.528Z,24.40
2018-09-13T16:53:15.303Z,24.50
2018-09-13T16:55:43.632Z,24.50
2018-09-13T16:58:11.850Z,24.50
2018-09-13T17:00:40.204Z,24.50
2018-09-13T17:03:08.298Z,24.50
2018-09-13T17:05:36.429Z,24.40
2018-09-13T17:08:04.542Z,24.40
2018-09-13T17:10:32.831Z,24.40
2018-09-13T17:13:01.043Z,24.30
2018-09-13T17:15:29.512Z,24.20
2018-09-13T17:17:57.886Z,24.20
2018-09-13T17:20:25.990Z,24.20
2018-09-13T17:22:54.179Z,24.20
2018-09-13T17:25:22.459Z,24.10
2018-09-13T17:27:50.815Z,24.10
2018-09-13T17:30:18.982Z,24.00
2018-09-13T17:32:47.135Z,23.90
2018-09-13T17:35:15.261Z,23.90
2018-09-13T17:37:43.519Z,23.90
2018-09-13T17:40:11.655Z,23.90
2018-09-13T17:42:41.903Z,23.80
2018-09-13T17:45:10.077Z,23.70
2018-09-13T17:47:38.225Z,23.70
2018-09-13T17:50:07.031Z,23.60
2018-09-13T17:52:35.319Z,23.60
2018-09-13T17:55:03.519Z,23.60
2018-09-13T17:57:31.691Z,23.60
2018-09-13T18:00:00.120Z,22.40
2018-09-13T18:02:28.736Z,21.60
2018-09-13T18:04:57.287Z,21.20
2018-09-13T18:07:25.746Z,21.00
2018-09-13T18:10:11.047Z,20.60
2018-09-13T18:12:46.482Z,20.50
2018-09-13T18:18:56.186Z,20.30
2018-09-13T18:21:29.022Z,20.10
2018-09-13T18:23:57.707Z,20.00
2018-09-13T18:26:26.071Z,20.00
2018-09-13T18:28:55.326Z,19.80
2018-09-13T18:31:23.656Z,19.90
2018-09-13T18:33:52.181Z,20.00
2018-09-13T18:38:56.855Z,19.70
2018-09-13T18:41:24.974Z,20.00
2018-09-13T18:43:53.092Z,20.00
2018-09-13T18:46:21.254Z,19.90
2018-09-13T18:48:49.539Z,19.90
2018-09-13T18:51:17.688Z,20.00
2018-09-13T18:53:45.830Z,20.10
2018-09-13T18:56:13.991Z,20.40
2018-09-13T18:58:42.208Z,20.10
2018-09-13T19:01:10.426Z,20.20
2018-09-13T19:03:38.675Z,20.10
2018-09-13T19:06:07.192Z,20.00
2018-09-13T19:08:35.331Z,20.00
2018-09-13T19:11:03.513Z,20.00
2018-09-13T19:13:31.790Z,20.10
2018-09-13T19:15:59.959Z,20.20
2018-09-13T19:18:28.118Z,20.20
2018-09-13T19:23:34.722Z,20.00
2018-09-13T19:26:02.955Z,19.90
2018-09-13T19:28:31.157Z,19.70
2018-09-13T19:30:59.727Z,19.00
2018-09-13T19:33:28.372Z,18.20
2018-09-13T19:35:56.733Z,18.80
2018-09-13T19:41:04.352Z,19.70
2018-09-13T19:43:33.175Z,19.90
2018-09-13T19:46:01.579Z,19.80
2018-09-13T19:48:29.882Z,20.00
2018-09-13T19:50:58.214Z,19.90
2018-09-13T19:53:26.274Z,19.80
2018-09-13T19:55:54.571Z,19.40
2018-09-13T19:58:22.734Z,18.70
2018-09-13T20:00:51.226Z,18.90
2018-09-13T20:03:19.412Z,19.10
2018-09-13T20:05:48.174Z,19.40
2018-09-13T20:08:16.440Z,19.30
2018-09-13T20:10:44.716Z,19.20
2018-09-13T20:13:13.091Z,19.30
2018-09-13T20:15:41.330Z,19.40
2018-09-13T20:18:09.804Z,19.70
2018-09-13T20:20:38.838Z,19.80
2018-09-13T20:23:08.139Z,19.50
2018-09-13T20:25:36.349Z,19.60
2018-09-13T20:28:04.815Z,19.60
2018-09-13T20:30:33.043Z,19.50
2018-09-13T20:33:01.667Z,19.30
2018-09-13T20:35:29.912Z,18.40
2018-09-13T20:37:58.110Z,18.90
2018-09-13T20:40:26.272Z,19.10
2018-09-13T20:42:54.410Z,19.30
2018-09-13T20:45:26.693Z,19.40
2018-09-13T20:47:54.888Z,19.50
2018-09-13T20:50:23.082Z,19.40
2018-09-13T20:52:51.250Z,18.70
2018-09-13T20:55:19.363Z,18.90
2018-09-13T20:57:47.506Z,19.00
2018-09-13T21:00:19.284Z,18.90
2018-09-13T21:02:48.858Z,18.80
2018-09-13T21:05:17.466Z,19.20
2018-09-13T21:07:45.648Z,19.30
2018-09-13T21:10:13.931Z,19.40
2018-09-13T21:12:42.072Z,19.70
2018-09-13T21:15:10.242Z,19.60
2018-09-13T21:17:39.903Z,19.50
2018-09-13T21:20:08.454Z,19.10
2018-09-13T21:22:36.599Z,19.00
2018-09-13T21:25:04.780Z,19.00
2018-09-13T21:27:33.771Z,19.20
2018-09-13T21:30:02.016Z,19.20
2018-09-13T21:32:30.163Z,19.30
2018-09-13T21:34:58.354Z,19.40
2018-09-13T21:37:26.558Z,19.20
2018-09-13T21:39:54.770Z,19.30
2018-09-13T21:42:22.952Z,19.20
2018-09-13T21:44:51.165Z,18.50
2018-09-13T21:47:19.270Z,18.60
2018-09-13T21:49:47.474Z,19.00
2018-09-13T21:52:15.626Z,18.90
2018-09-13T21:54:43.806Z,18.50
2018-09-13T21:57:12.094Z,18.90
2018-09-13T21:59:40.271Z,19.10
2018-09-13T22:02:08.518Z,19.00
2018-09-13T22:04:36.678Z,19.00
2018-09-13T22:07:04.910Z,18.70
2018-09-13T22:12:12.482Z,18.00
2018-09-13T22:14:41.011Z,18.50
2018-09-13T22:17:09.731Z,18.50
2018-09-13T22:19:37.971Z,18.50
2018-09-13T22:22:06.187Z,18.60
2018-09-13T22:24:34.346Z,18.80
2018-09-13T22:27:02.535Z,18.70
2018-09-13T22:29:30.796Z,18.60
2018-09-13T22:31:59.080Z,18.50
2018-09-13T22:34:27.198Z,19.20
2018-09-13T22:36:55.472Z,19.90
2018-09-13T22:39:23.958Z,20.30
2018-09-13T22:41:52.142Z,20.40
2018-09-13T22:44:20.406Z,20.50
2018-09-13T22:46:48.639Z,20.50
2018-09-13T22:49:16.865Z,20.60
2018-09-13T22:51:45.088Z,20.70
2018-09-13T22:54:13.258Z,20.70
2018-09-13T22:56:41.430Z,20.70
2018-09-13T22:59:09.578Z,20.70
2018-09-13T23:01:37.787Z,20.70
2018-09-13T23:04:06.427Z,20.70
2018-09-13T23:06:34.571Z,20.70
2018-09-13T23:09:02.739Z,20.70
2018-09-13T23:11:31.190Z,20.70
2018-09-13T23:13:59.355Z,20.70
2018-09-13T23:16:27.491Z,20.70
2018-09-13T23:18:55.691Z,20.70
2018-09-13T23:21:24.143Z,20.70
2018-09-13T23:23:52.389Z,20.70
2018-09-13T23:26:20.568Z,20.70
2018-09-13T23:28:48.815Z,20.70
2018-09-13T23:31:16.934Z,20.70
2018-09-13T23:33:45.094Z,20.70
2018-09-13T23:36:13.298Z,20.70
2018-09-13T23:38:41.526Z,20.70
2018-09-13T23:41:09.687Z,20.70
2018-09-13T23:43:37.873Z,20.70
2018-09-13T23:46:06.470Z,20.70
2018-09-13T23:48:34.588Z,20.60
2018-09-13T23:51:03.036Z,20.60
2018-09-13T23:53:31.147Z,20.60
2018-09-13T23:55:59.247Z,20.60
2018-09-13T23:58:27.403Z,20.60
